Boght Corners, New York
Current Conditions -  °F | °C
As of 8:51 AM on Thursday 23 Oct 2014 (Local Time) from KALB Reporting Station
Light Rain Light Rain  
Wind Chill: 41°   Ceiling: 900
Heat Index: 46°   Visibility: 7mi
Dew Point: 43°   Wind: 9mph
Humidity: 89%   Direction: 20°NNE
Pressure: 29.86"   Gusts: NA
Location:  42.7824°N, 73.7303°W
Report Text: KALB 231251Z 02008KT 7SM -RA BKN009 OVC020 08/06 A2986 RMK AO2 SLP113 P0010 T00780061
Loading
Personal Weather Stations






























Interactive Weather Map
Tropical Storm Tracking
New forecast layout! Learn more

10-Day Weather Forecast

Advertisements
Track Severe Weather on mobile